createdAt,value
2019-03-11T00:00:39.311Z,3.30
2019-03-11T00:01:39.252Z,3.60
2019-03-11T00:02:39.203Z,3.20
2019-03-11T00:03:39.160Z,3.50
2019-03-11T00:04:39.103Z,3.40
2019-03-11T00:05:39.053Z,3.60
2019-03-11T00:06:39.050Z,3.50
2019-03-11T00:07:38.958Z,3.40
2019-03-11T00:08:38.904Z,3.80
2019-03-11T00:09:38.856Z,4.30
2019-03-11T00:10:38.806Z,3.90
2019-03-11T00:11:38.754Z,3.60
2019-03-11T00:12:38.708Z,4.20
2019-03-11T00:13:38.652Z,3.90
2019-03-11T00:14:38.706Z,3.60
2019-03-11T00:15:38.555Z,4.30
2019-03-11T00:16:38.505Z,4.80
2019-03-11T00:17:38.455Z,5.20
2019-03-11T00:18:38.406Z,5.30
2019-03-11T00:19:38.357Z,5.30
2019-03-11T00:20:38.306Z,5.20
2019-03-11T00:21:38.252Z,4.30
2019-03-11T00:22:38.206Z,3.90
2019-03-11T00:23:38.157Z,4.10
2019-03-11T00:24:38.106Z,3.50
2019-03-11T00:25:38.060Z,3.90
2019-03-11T00:26:38.007Z,4.20
2019-03-11T00:27:37.957Z,3.90
2019-03-11T00:28:37.905Z,4.30
2019-03-11T00:29:37.867Z,4.30
2019-03-11T00:30:37.811Z,5.20
2019-03-11T00:31:37.757Z,6.40
2019-03-11T00:32:37.703Z,7.80
2019-03-11T00:33:37.653Z,6.20
2019-03-11T00:34:37.606Z,6.30
2019-03-11T00:35:37.554Z,7.00
2019-03-11T00:36:37.503Z,5.10
2019-03-11T00:37:37.526Z,5.80
2019-03-11T00:38:37.413Z,8.00
2019-03-11T00:39:37.356Z,5.80
2019-03-11T00:40:37.315Z,4.60
2019-03-11T00:41:37.254Z,5.00
2019-03-11T00:42:37.205Z,4.70
2019-03-11T00:43:37.154Z,3.90
2019-03-11T00:44:37.105Z,3.60
2019-03-11T00:45:37.058Z,3.70
2019-03-11T00:46:37.007Z,4.20
2019-03-11T00:47:36.955Z,3.70
2019-03-11T00:48:36.905Z,3.80
2019-03-11T00:49:36.857Z,3.30
2019-03-11T00:50:36.807Z,3.40
2019-03-11T00:51:36.760Z,3.50
2019-03-11T00:52:36.836Z,3.90
2019-03-11T00:53:36.656Z,3.50
2019-03-11T00:54:36.611Z,3.90
2019-03-11T00:55:36.558Z,4.10
2019-03-11T00:56:36.505Z,4.70
2019-03-11T00:57:36.460Z,4.30
2019-03-11T00:58:36.406Z,4.60
2019-03-11T00:59:36.362Z,4.00
2019-03-11T01:00:36.307Z,3.90
2019-03-11T01:01:36.322Z,3.50
2019-03-11T01:02:36.209Z,3.40
2019-03-11T01:03:36.155Z,3.20
2019-03-11T01:04:36.110Z,2.70
2019-03-11T01:05:36.057Z,3.00
2019-03-11T01:06:36.006Z,3.50
2019-03-11T01:07:35.961Z,3.00
2019-03-11T01:08:35.909Z,2.60
2019-03-11T01:09:35.861Z,3.00
2019-03-11T01:10:35.809Z,2.60
2019-03-11T01:11:35.760Z,2.20
2019-03-11T01:12:35.713Z,2.60
2019-03-11T01:13:35.657Z,2.90
2019-03-11T01:14:36.042Z,2.40
2019-03-11T01:15:39.463Z,2.50
2019-03-11T01:16:35.511Z,2.10
2019-03-11T01:17:35.465Z,2.00
2019-03-11T01:18:35.413Z,2.60
2019-03-11T01:19:35.363Z,2.50
2019-03-11T01:20:35.312Z,2.40
2019-03-11T01:21:35.261Z,2.50
2019-03-11T01:22:35.215Z,2.40
2019-03-11T01:23:35.164Z,1.80
2019-03-11T01:24:35.112Z,2.50
2019-03-11T01:25:35.067Z,2.10
2019-03-11T01:26:35.014Z,2.50
2019-03-11T01:27:34.962Z,2.40
2019-03-11T01:28:34.911Z,2.40
2019-03-11T01:29:34.880Z,2.60
2019-03-11T01:30:34.813Z,2.60
2019-03-11T01:31:34.774Z,2.50
2019-03-11T01:32:34.716Z,2.50
2019-03-11T01:33:34.664Z,2.70
2019-03-11T01:34:34.615Z,2.90
2019-03-11T01:35:34.566Z,2.80
2019-03-11T01:36:34.516Z,2.60
2019-03-11T01:37:34.466Z,3.20
2019-03-11T01:38:34.416Z,2.70
2019-03-11T01:39:34.365Z,2.60
2019-03-11T01:40:34.317Z,2.80
2019-03-11T01:41:34.264Z,3.20
2019-03-11T01:42:34.218Z,3.10
2019-03-11T01:43:34.165Z,3.50
2019-03-11T01:44:34.117Z,3.20
2019-03-11T01:45:34.074Z,3.10
2019-03-11T01:46:34.016Z,3.10
2019-03-11T01:47:33.970Z,3.70
2019-03-11T01:48:33.928Z,3.20
2019-03-11T01:49:33.867Z,3.00
2019-03-11T01:50:33.818Z,3.30
2019-03-11T01:51:33.772Z,2.80
2019-03-11T01:52:33.721Z,2.80
2019-03-11T01:53:33.670Z,3.00
2019-03-11T01:54:33.625Z,2.40
2019-03-11T01:55:33.578Z,3.20
2019-03-11T01:56:33.514Z,2.60
2019-03-11T01:57:33.467Z,2.70
2019-03-11T01:58:33.416Z,3.10
2019-03-11T01:59:33.374Z,2.70
2019-03-11T02:00:33.318Z,3.00
2019-03-11T02:01:33.265Z,2.90
2019-03-11T02:02:33.218Z,2.80
2019-03-11T02:03:33.166Z,2.70
2019-03-11T02:04:33.116Z,2.50
2019-03-11T02:05:33.066Z,2.80
2019-03-11T02:06:33.017Z,2.50
2019-03-11T02:07:32.972Z,2.60
2019-03-11T02:08:32.916Z,2.70
2019-03-11T02:09:32.872Z,2.70
2019-03-11T02:10:32.818Z,2.50
2019-03-11T02:11:32.769Z,2.60
2019-03-11T02:12:32.721Z,2.90
2019-03-11T02:13:32.668Z,2.60
2019-03-11T02:14:32.618Z,2.60
2019-03-11T02:15:32.568Z,2.20
2019-03-11T02:16:32.518Z,2.40
2019-03-11T02:17:32.471Z,2.60
2019-03-11T02:18:32.437Z,2.20
2019-03-11T02:19:32.370Z,2.60
2019-03-11T02:20:32.321Z,2.60
2019-03-11T02:21:32.277Z,2.60
2019-03-11T02:22:32.218Z,2.50
2019-03-11T02:23:32.176Z,2.50
2019-03-11T02:24:32.118Z,2.40
2019-03-11T02:25:32.068Z,2.30
2019-03-11T02:26:32.018Z,2.50
2019-03-11T02:27:31.974Z,2.80
2019-03-11T02:28:31.921Z,2.60
2019-03-11T02:29:31.870Z,2.50
2019-03-11T02:30:31.828Z,2.80
2019-03-11T02:31:31.770Z,2.10
2019-03-11T02:32:31.727Z,2.50
2019-03-11T02:33:31.688Z,2.40
2019-03-11T02:34:31.648Z,2.60
2019-03-11T02:35:31.571Z,2.40
2019-03-11T02:36:31.532Z,2.40
2019-03-11T02:37:31.469Z,2.40
2019-03-11T02:38:31.421Z,2.40
2019-03-11T02:39:31.368Z,2.60
2019-03-11T02:40:31.325Z,2.70
2019-03-11T02:41:31.270Z,2.50
2019-03-11T02:42:31.223Z,2.50
2019-03-11T02:43:31.170Z,2.50
2019-03-11T02:44:31.153Z,2.50
2019-03-11T02:45:31.074Z,2.20
2019-03-11T02:46:31.028Z,2.80
2019-03-11T02:47:30.969Z,2.80
2019-03-11T02:48:30.922Z,2.50
2019-03-11T02:49:30.874Z,2.50
2019-03-11T02:50:30.826Z,3.00
2019-03-11T02:51:30.782Z,3.20
2019-03-11T02:52:30.719Z,3.00
2019-03-11T02:53:30.670Z,3.60
2019-03-11T02:54:30.620Z,3.30
2019-03-11T02:55:30.570Z,2.50
2019-03-11T02:56:30.567Z,3.30
2019-03-11T02:57:30.468Z,3.30
2019-03-11T02:58:30.429Z,3.30
2019-03-11T02:59:32.419Z,3.30
2019-03-11T03:00:30.325Z,3.50
2019-03-11T03:01:30.288Z,2.90
2019-03-11T03:02:30.227Z,3.40
2019-03-11T03:03:30.167Z,3.30
2019-03-11T03:04:30.120Z,3.20
2019-03-11T03:05:30.081Z,3.50
2019-03-11T03:06:30.027Z,3.40
2019-03-11T03:07:29.975Z,3.10
2019-03-11T03:08:29.916Z,3.30
2019-03-11T03:09:31.816Z,3.10
2019-03-11T03:10:29.825Z,3.10
2019-03-11T03:11:29.768Z,3.00
2019-03-11T03:12:29.723Z,3.10
2019-03-11T03:13:29.669Z,3.50
2019-03-11T03:14:29.617Z,3.20
2019-03-11T03:15:29.574Z,2.90
2019-03-11T03:16:29.519Z,3.10
2019-03-11T03:17:29.468Z,2.90
2019-03-11T03:18:29.423Z,3.00
2019-03-11T03:19:29.370Z,3.10
2019-03-11T03:20:29.317Z,2.80
2019-03-11T03:21:29.265Z,2.90
2019-03-11T03:22:29.223Z,2.90
2019-03-11T03:23:29.313Z,2.60
2019-03-11T03:24:29.113Z,2.80
2019-03-11T03:25:34.489Z,2.80
2019-03-11T03:26:29.014Z,2.80
2019-03-11T03:27:28.974Z,2.60
2019-03-11T03:28:28.915Z,2.80
2019-03-11T03:29:28.867Z,3.10
2019-03-11T03:30:28.939Z,2.90
2019-03-11T03:31:28.764Z,3.10
2019-03-11T03:32:28.719Z,2.70
2019-03-11T03:33:28.671Z,2.70
2019-03-11T03:34:28.620Z,2.90
2019-03-11T03:35:28.564Z,3.10
2019-03-11T03:36:28.517Z,2.60
2019-03-11T03:37:28.469Z,2.80
2019-03-11T03:38:31.014Z,3.00
2019-03-11T03:39:28.366Z,2.80
2019-03-11T03:40:28.411Z,2.40
2019-03-11T03:41:28.265Z,3.00
2019-03-11T03:42:28.217Z,2.50
2019-03-11T03:43:28.166Z,3.20
2019-03-11T03:44:28.115Z,2.90
2019-03-11T03:45:28.070Z,2.90
2019-03-11T03:46:28.016Z,2.70
2019-03-11T03:47:27.963Z,3.00
2019-03-11T03:48:27.998Z,2.90
2019-03-11T03:49:27.862Z,2.90
2019-03-11T03:50:27.826Z,3.40
2019-03-11T03:51:27.763Z,2.80
2019-03-11T03:52:27.716Z,3.40
2019-03-11T03:53:27.672Z,2.50
2019-03-11T03:54:27.613Z,2.90
2019-03-11T03:55:27.564Z,2.90
2019-03-11T03:56:27.513Z,3.50
2019-03-11T03:57:27.466Z,3.40
2019-03-11T03:58:27.409Z,3.30
2019-03-11T03:59:27.364Z,3.50
2019-03-11T04:00:27.318Z,2.80
2019-03-11T04:01:27.261Z,3.10
2019-03-11T04:02:27.212Z,3.20
2019-03-11T04:03:27.171Z,2.90
2019-03-11T04:04:27.111Z,3.20
2019-03-11T04:05:27.060Z,3.20
2019-03-11T04:06:27.018Z,3.00
2019-03-11T04:07:26.961Z,3.20
2019-03-11T04:08:26.911Z,3.60
2019-03-11T04:09:26.857Z,3.20
2019-03-11T04:10:26.809Z,3.50
2019-03-11T04:11:26.758Z,3.20
2019-03-11T04:12:26.719Z,3.00
2019-03-11T04:13:26.659Z,3.40
2019-03-11T04:14:26.614Z,2.80
2019-03-11T04:15:26.565Z,3.50
2019-03-11T04:16:26.506Z,3.40
2019-03-11T04:17:26.463Z,3.30
2019-03-11T04:18:26.408Z,3.30
2019-03-11T04:19:29.142Z,3.20
2019-03-11T04:20:26.319Z,3.10
2019-03-11T04:21:26.274Z,3.20
2019-03-11T04:22:26.215Z,3.00
2019-03-11T04:23:26.158Z,2.70
2019-03-11T04:24:26.114Z,2.70
2019-03-11T04:25:26.057Z,2.60
2019-03-11T04:26:26.005Z,3.00
2019-03-11T04:27:25.956Z,2.60
2019-03-11T04:28:25.906Z,2.80
2019-03-11T04:29:25.855Z,3.10
2019-03-11T04:30:25.809Z,2.50
2019-03-11T04:31:25.758Z,2.50
2019-03-11T04:32:25.709Z,2.50
2019-03-11T04:33:25.655Z,2.30
2019-03-11T04:34:25.622Z,2.40
2019-03-11T04:35:25.556Z,2.70
2019-03-11T04:36:25.522Z,2.90
2019-03-11T04:37:25.458Z,2.40
2019-03-11T04:38:25.409Z,2.40
2019-03-11T04:39:25.356Z,2.80
2019-03-11T04:40:25.306Z,2.50
2019-03-11T04:41:25.253Z,2.70
2019-03-11T04:42:25.203Z,2.70
2019-03-11T04:43:25.155Z,2.70
2019-03-11T04:44:25.106Z,2.50
2019-03-11T04:45:25.053Z,2.20
2019-03-11T04:46:25.004Z,2.60
2019-03-11T04:47:24.955Z,2.60
2019-03-11T04:48:24.907Z,2.60
2019-03-11T04:49:24.860Z,2.70
2019-03-11T04:50:24.807Z,2.50
2019-03-11T04:51:24.753Z,2.50
2019-03-11T04:52:24.705Z,2.60
2019-03-11T04:53:24.659Z,2.70
2019-03-11T04:54:24.605Z,2.80
2019-03-11T04:55:24.554Z,2.70
2019-03-11T04:56:24.502Z,2.80
2019-03-11T04:57:24.454Z,2.30
2019-03-11T04:58:24.405Z,2.70
2019-03-11T04:59:24.360Z,2.90
2019-03-11T05:00:24.302Z,2.60
2019-03-11T05:01:24.256Z,2.60
2019-03-11T05:02:24.207Z,2.70
2019-03-11T05:03:24.151Z,3.10
2019-03-11T05:04:24.101Z,3.00
2019-03-11T05:05:24.054Z,3.00
2019-03-11T05:06:24.001Z,2.80
2019-03-11T05:07:23.952Z,2.40
2019-03-11T05:08:23.902Z,3.20
2019-03-11T05:09:23.851Z,2.60
2019-03-11T05:10:23.808Z,3.60
2019-03-11T05:11:23.752Z,3.20
2019-03-11T05:12:23.702Z,2.70
2019-03-11T05:13:23.651Z,3.00
2019-03-11T05:14:23.601Z,2.60
2019-03-11T05:15:23.555Z,2.70
2019-03-11T05:16:23.501Z,3.10
2019-03-11T05:17:23.450Z,2.80
2019-03-11T05:18:23.404Z,2.80
2019-03-11T05:19:23.359Z,2.50
2019-03-11T05:20:23.308Z,3.20
2019-03-11T05:21:23.249Z,3.20
2019-03-11T05:22:23.205Z,3.00
2019-03-11T05:23:23.151Z,2.80
2019-03-11T05:24:23.099Z,2.60
2019-03-11T05:25:23.050Z,2.40
2019-03-11T05:26:23.004Z,2.70
2019-03-11T05:27:22.948Z,2.60
2019-03-11T05:28:22.900Z,2.50
2019-03-11T05:29:22.848Z,3.00
2019-03-11T05:30:22.810Z,2.70
2019-03-11T05:31:22.752Z,2.50
2019-03-11T05:32:22.703Z,2.40
2019-03-11T05:33:22.649Z,2.50
2019-03-11T05:34:22.599Z,2.40
2019-03-11T05:35:22.550Z,2.60
2019-03-11T05:36:22.500Z,2.70
2019-03-11T05:37:22.446Z,2.50
2019-03-11T05:38:22.398Z,2.50
2019-03-11T05:39:22.365Z,2.60
2019-03-11T05:40:22.302Z,2.50
2019-03-11T05:41:22.245Z,2.50
2019-03-11T05:42:22.194Z,2.40
2019-03-11T05:43:22.148Z,3.10
2019-03-11T05:44:22.096Z,2.60
2019-03-11T05:45:22.056Z,2.70
2019-03-11T05:46:21.997Z,2.70
2019-03-11T05:47:21.945Z,3.50
2019-03-11T05:48:21.900Z,3.00
2019-03-11T05:49:21.845Z,2.70
2019-03-11T05:50:21.796Z,2.60
2019-03-11T05:51:31.148Z,2.80
2019-03-11T05:52:21.697Z,3.10
2019-03-11T05:53:21.645Z,2.90
2019-03-11T05:54:21.594Z,3.10
2019-03-11T05:55:21.548Z,3.40
2019-03-11T05:56:21.495Z,3.20
2019-03-11T05:57:21.506Z,3.70
2019-03-11T05:58:21.395Z,3.30
2019-03-11T05:59:21.343Z,3.40
2019-03-11T06:00:21.304Z,3.60
2019-03-11T06:01:21.242Z,3.60
2019-03-11T06:02:21.191Z,3.60
2019-03-11T06:03:21.147Z,3.80
2019-03-11T06:04:21.093Z,3.00
2019-03-11T06:05:21.044Z,3.10
2019-03-11T06:06:20.994Z,3.00
2019-03-11T06:07:20.943Z,2.80
2019-03-11T06:08:20.897Z,2.90
2019-03-11T06:09:20.845Z,3.10
2019-03-11T06:10:20.792Z,3.20
2019-03-11T06:11:20.742Z,3.10
2019-03-11T06:12:20.692Z,3.30
2019-03-11T06:13:20.644Z,3.70
2019-03-11T06:14:20.591Z,3.50
2019-03-11T06:15:20.544Z,4.20
2019-03-11T06:16:20.493Z,3.70
2019-03-11T06:17:20.442Z,4.20
2019-03-11T06:18:20.392Z,4.20
2019-03-11T06:19:20.340Z,4.20
2019-03-11T06:20:20.306Z,3.90
2019-03-11T06:21:20.242Z,4.30
2019-03-11T06:22:20.189Z,3.50
2019-03-11T06:23:20.145Z,3.80
2019-03-11T06:24:20.094Z,4.00
2019-03-11T06:25:20.073Z,3.60
2019-03-11T06:26:19.991Z,3.40
2019-03-11T06:27:19.941Z,4.30
2019-03-11T06:28:19.955Z,4.00
2019-03-11T06:29:30.229Z,4.30
2019-03-11T06:30:19.789Z,4.10
2019-03-11T06:31:19.736Z,3.70
2019-03-11T06:32:19.689Z,4.70
2019-03-11T06:33:19.643Z,5.30
2019-03-11T06:34:19.586Z,5.60
2019-03-11T06:35:19.539Z,5.10
2019-03-11T06:36:19.486Z,5.70
2019-03-11T06:37:19.434Z,5.30
2019-03-11T06:38:19.383Z,5.00
2019-03-11T06:39:19.335Z,4.60
2019-03-11T06:40:19.282Z,4.60
2019-03-11T06:41:19.233Z,5.00
2019-03-11T06:42:19.183Z,4.80
2019-03-11T06:43:19.166Z,4.90
2019-03-11T06:44:19.082Z,4.90
2019-03-11T06:45:19.032Z,5.00
2019-03-11T06:46:18.980Z,5.00
2019-03-11T06:47:18.934Z,5.40
2019-03-11T06:48:18.891Z,5.40
2019-03-11T06:49:18.831Z,6.60
2019-03-11T06:50:18.779Z,6.90
2019-03-11T06:51:18.731Z,6.50
2019-03-11T06:52:18.681Z,6.80
2019-03-11T06:53:18.630Z,7.40
2019-03-11T06:54:18.576Z,7.10
2019-03-11T06:55:18.535Z,6.60
2019-03-11T06:56:18.477Z,7.30
2019-03-11T06:57:18.436Z,8.10
2019-03-11T06:58:18.381Z,8.00
2019-03-11T06:59:18.420Z,7.80
2019-03-11T07:00:18.314Z,6.60
2019-03-11T07:01:18.232Z,7.00
2019-03-11T07:02:18.180Z,6.50
2019-03-11T07:03:18.128Z,6.10
2019-03-11T07:04:18.076Z,5.50
2019-03-11T07:05:20.447Z,6.20
2019-03-11T07:06:17.974Z,5.80
2019-03-11T07:07:17.924Z,6.00
2019-03-11T07:08:17.877Z,5.60
2019-03-11T07:09:17.969Z,5.50
2019-03-11T07:10:17.779Z,6.10
2019-03-11T07:11:17.722Z,5.40
2019-03-11T07:12:17.672Z,5.90
2019-03-11T07:13:17.626Z,5.70
2019-03-11T07:14:17.570Z,5.80
2019-03-11T07:15:17.521Z,6.00
2019-03-11T07:16:17.476Z,6.20
2019-03-11T07:17:17.435Z,6.60
2019-03-11T07:18:17.371Z,5.80
2019-03-11T07:19:17.319Z,6.30
2019-03-11T07:20:17.270Z,6.20
2019-03-11T07:21:17.223Z,6.10
2019-03-11T07:22:17.178Z,6.40
2019-03-11T07:24:17.070Z,5.80
2019-03-11T07:25:17.043Z,5.90
2019-03-11T07:26:16.968Z,6.10
2019-03-11T07:27:16.917Z,6.00
2019-03-11T07:28:16.867Z,5.60
2019-03-11T07:29:16.824Z,5.70
2019-03-11T07:30:16.826Z,5.90
2019-03-11T07:31:16.718Z,5.70
2019-03-11T07:32:16.665Z,6.20
2019-03-11T07:33:16.619Z,5.30
2019-03-11T07:34:16.567Z,5.70
2019-03-11T07:35:16.513Z,5.30
2019-03-11T07:36:16.464Z,5.60
2019-03-11T07:37:16.503Z,4.90
2019-03-11T07:38:16.371Z,4.90
2019-03-11T07:39:16.315Z,4.80
2019-03-11T07:40:16.266Z,4.50
2019-03-11T07:41:16.215Z,4.70
2019-03-11T07:42:16.162Z,4.60
2019-03-11T07:43:16.112Z,5.30
2019-03-11T07:44:16.060Z,4.80
2019-03-11T07:45:16.012Z,4.90
2019-03-11T07:46:15.961Z,4.60
2019-03-11T07:47:15.977Z,5.50
2019-03-11T07:48:15.858Z,5.20
2019-03-11T07:49:15.810Z,5.00
2019-03-11T07:50:15.758Z,4.80
2019-03-11T07:51:15.712Z,4.80
2019-03-11T07:52:15.657Z,5.50
2019-03-11T07:53:15.619Z,5.10
2019-03-11T07:54:15.558Z,5.60
2019-03-11T07:55:15.510Z,5.40
2019-03-11T07:56:15.457Z,5.30
2019-03-11T07:57:15.405Z,5.40
2019-03-11T07:58:15.366Z,5.10
2019-03-11T07:59:15.306Z,5.50
2019-03-11T08:00:15.258Z,5.60
2019-03-11T08:01:15.205Z,5.10
2019-03-11T08:02:15.155Z,5.10
2019-03-11T08:03:15.104Z,4.60
2019-03-11T08:04:15.056Z,5.30
2019-03-11T08:05:15.013Z,4.70
2019-03-11T08:06:18.841Z,5.00
2019-03-11T08:07:14.903Z,4.70
2019-03-11T08:08:14.852Z,4.50
2019-03-11T08:09:14.806Z,4.70
2019-03-11T08:10:14.762Z,4.80
2019-03-11T08:11:14.720Z,4.70
2019-03-11T08:12:14.651Z,4.40
2019-03-11T08:13:14.612Z,4.60
2019-03-11T08:14:14.552Z,4.50
2019-03-11T08:15:14.504Z,4.50
2019-03-11T08:16:14.452Z,4.60
2019-03-11T08:17:14.421Z,4.70
2019-03-11T08:18:14.352Z,4.20
2019-03-11T08:19:14.300Z,4.50
2019-03-11T08:20:14.260Z,4.10
2019-03-11T08:21:14.200Z,4.80
2019-03-11T08:22:14.150Z,4.00
2019-03-11T08:23:14.102Z,4.50
2019-03-11T08:24:16.531Z,4.20
2019-03-11T08:25:14.001Z,4.00
2019-03-11T08:26:13.949Z,3.60
2019-03-11T08:27:13.898Z,3.50
2019-03-11T08:28:13.853Z,4.30
2019-03-11T08:29:13.801Z,3.60
2019-03-11T08:30:13.754Z,4.00
2019-03-11T08:31:13.701Z,3.80
2019-03-11T08:32:13.650Z,3.80
2019-03-11T08:33:13.600Z,4.40
2019-03-11T08:34:13.553Z,3.70
2019-03-11T08:35:13.506Z,3.30
2019-03-11T08:36:13.452Z,3.60
2019-03-11T08:37:13.407Z,3.30
2019-03-11T08:38:13.355Z,3.30
2019-03-11T08:39:13.301Z,3.30
2019-03-11T08:40:13.250Z,3.40
2019-03-11T08:41:13.200Z,3.20
2019-03-11T08:42:13.153Z,3.60
2019-03-11T08:43:13.102Z,3.50
2019-03-11T08:44:13.053Z,3.40
2019-03-11T08:45:13.001Z,3.30
2019-03-11T08:46:12.952Z,3.20
2019-03-11T08:47:12.904Z,2.90
2019-03-11T08:48:12.859Z,2.70
2019-03-11T08:49:12.802Z,3.50
2019-03-11T08:50:12.754Z,3.60
2019-03-11T08:51:12.707Z,3.90
2019-03-11T08:52:12.655Z,3.60
2019-03-11T08:53:12.602Z,3.60
2019-03-11T08:54:12.559Z,3.40
2019-03-11T08:55:12.505Z,3.70
2019-03-11T08:56:12.452Z,3.60
2019-03-11T08:57:12.406Z,3.70
2019-03-11T08:58:12.360Z,3.80
2019-03-11T08:59:12.305Z,4.30
2019-03-11T09:00:12.261Z,4.10
2019-03-11T09:01:12.211Z,4.20
2019-03-11T09:02:12.158Z,4.80
2019-03-11T09:03:12.108Z,4.40
2019-03-11T09:04:12.057Z,5.20
2019-03-11T09:05:12.066Z,4.30
2019-03-11T09:06:11.968Z,4.20
2019-03-11T09:07:11.910Z,4.30
2019-03-11T09:08:11.856Z,4.70
2019-03-11T09:09:11.813Z,4.50
2019-03-11T09:10:11.759Z,4.40
2019-03-11T09:11:11.709Z,4.40
2019-03-11T09:12:11.660Z,4.60
2019-03-11T09:13:11.614Z,4.50
2019-03-11T09:14:11.561Z,5.10
2019-03-11T09:15:11.513Z,4.20
2019-03-11T09:16:11.459Z,4.00
2019-03-11T09:17:11.415Z,4.50
2019-03-11T09:18:11.362Z,4.60
2019-03-11T09:19:11.318Z,4.10
2019-03-11T09:20:11.262Z,4.50
2019-03-11T09:21:11.216Z,4.70
2019-03-11T09:22:11.166Z,4.30
2019-03-11T09:23:11.120Z,4.60
2019-03-11T09:24:18.687Z,3.90
2019-03-11T09:25:11.026Z,4.10
2019-03-11T09:26:10.970Z,4.60
2019-03-11T09:27:10.918Z,4.40
2019-03-11T09:28:10.870Z,4.00
2019-03-11T09:29:10.819Z,4.90
2019-03-11T09:30:10.778Z,4.10
2019-03-11T09:31:10.746Z,4.20
2019-03-11T09:32:10.675Z,4.70
2019-03-11T09:33:10.624Z,5.00
2019-03-11T09:34:10.571Z,4.50
2019-03-11T09:35:10.523Z,4.40
2019-03-11T09:36:10.472Z,4.50
2019-03-11T09:37:10.434Z,4.10
2019-03-11T09:38:10.379Z,5.00
2019-03-11T09:39:10.327Z,4.60
2019-03-11T09:40:10.277Z,4.80
2019-03-11T09:41:10.227Z,4.40
2019-03-11T09:42:10.185Z,4.20
2019-03-11T09:43:10.131Z,4.40
2019-03-11T09:44:10.081Z,4.20
2019-03-11T09:45:10.030Z,4.60
2019-03-11T09:46:09.985Z,4.70
2019-03-11T09:47:09.932Z,4.30
2019-03-11T09:48:09.884Z,4.10
2019-03-11T09:49:09.840Z,4.40
2019-03-11T09:50:09.786Z,5.30
2019-03-11T09:51:09.736Z,4.40
2019-03-11T09:52:09.686Z,4.10
2019-03-11T09:53:09.636Z,4.40
2019-03-11T09:54:09.590Z,4.30
2019-03-11T09:55:09.542Z,4.60
2019-03-11T09:56:09.863Z,4.60
2019-03-11T09:57:09.440Z,3.60
2019-03-11T09:58:09.406Z,3.80
2019-03-11T09:59:09.354Z,3.90
2019-03-11T10:00:09.311Z,3.50
2019-03-11T10:01:09.245Z,4.20
2019-03-11T10:02:09.201Z,3.90
2019-03-11T10:03:09.151Z,4.40
2019-03-11T10:05:09.048Z,4.40
2019-03-11T10:06:09.005Z,4.00
2019-03-11T10:07:08.953Z,3.70
2019-03-11T10:08:10.804Z,3.70
2019-03-11T10:09:08.852Z,4.20
2019-03-11T10:10:08.806Z,4.00
2019-03-11T10:11:08.755Z,3.70
2019-03-11T10:12:08.711Z,3.80
2019-03-11T10:13:08.658Z,3.40
2019-03-11T10:14:08.610Z,3.90
2019-03-11T10:15:08.560Z,3.70
2019-03-11T10:16:08.508Z,3.90
2019-03-11T10:17:08.462Z,3.90
2019-03-11T10:18:08.415Z,3.80
2019-03-11T10:19:08.366Z,3.70
2019-03-11T10:20:08.315Z,4.00
2019-03-11T10:21:08.273Z,3.80
2019-03-11T10:22:08.218Z,3.30
2019-03-11T10:23:08.174Z,3.20
2019-03-11T10:24:08.123Z,3.90
2019-03-11T10:25:08.074Z,3.10
2019-03-11T10:26:08.026Z,3.70
2019-03-11T10:27:07.985Z,3.50
2019-03-11T10:28:07.925Z,3.50
2019-03-11T10:29:07.879Z,3.10
2019-03-11T10:30:07.831Z,3.60
2019-03-11T10:31:07.780Z,3.00
2019-03-11T10:32:07.728Z,3.00
2019-03-11T10:33:07.685Z,2.90
2019-03-11T10:34:07.641Z,3.40
2019-03-11T10:35:29.830Z,3.00
2019-03-11T10:36:07.537Z,3.30
2019-03-11T10:37:07.487Z,2.90
2019-03-11T10:38:07.443Z,3.20
2019-03-11T10:39:07.390Z,3.00
2019-03-11T10:40:07.340Z,3.00
2019-03-11T10:41:07.314Z,3.10
2019-03-11T10:42:07.242Z,2.90
2019-03-11T10:43:07.195Z,3.40
2019-03-11T10:44:07.148Z,2.70
2019-03-11T10:45:07.098Z,2.60
2019-03-11T10:46:07.057Z,2.60
2019-03-11T10:47:06.997Z,3.00
2019-03-11T10:48:06.956Z,2.80
2019-03-11T10:49:06.905Z,3.10
2019-03-11T10:50:06.919Z,3.30
2019-03-11T10:51:06.811Z,3.30
2019-03-11T10:52:07.478Z,3.20
2019-03-11T10:53:06.708Z,2.90
2019-03-11T10:54:06.660Z,3.50
2019-03-11T10:55:06.612Z,2.90
2019-03-11T10:56:06.562Z,3.00
2019-03-11T10:57:06.511Z,3.10
2019-03-11T10:58:06.462Z,3.10
2019-03-11T10:59:06.413Z,3.00
2019-03-11T11:00:06.366Z,3.20
2019-03-11T11:01:06.314Z,3.20
2019-03-11T11:02:06.268Z,3.40
2019-03-11T11:03:06.220Z,3.20
2019-03-11T11:04:06.167Z,3.10
2019-03-11T11:05:06.125Z,3.20
2019-03-11T11:06:06.070Z,3.30
2019-03-11T11:07:06.026Z,2.80
2019-03-11T11:08:06.037Z,2.80
2019-03-11T11:09:05.924Z,3.50
2019-03-11T11:10:05.875Z,3.50
2019-03-11T11:11:05.828Z,3.90
2019-03-11T11:12:05.779Z,3.80
2019-03-11T11:13:05.728Z,4.20
2019-03-11T11:14:05.681Z,3.70
2019-03-11T11:15:05.641Z,3.00
2019-03-11T11:16:05.583Z,2.70
2019-03-11T11:17:05.534Z,2.80
2019-03-11T11:18:05.490Z,2.80
2019-03-11T11:19:05.440Z,3.40
2019-03-11T11:20:05.398Z,3.30
2019-03-11T11:21:05.338Z,3.10
2019-03-11T11:22:05.293Z,3.30
2019-03-11T11:23:05.242Z,3.00
2019-03-11T11:24:05.194Z,2.90
2019-03-11T11:25:05.143Z,3.40
2019-03-11T11:26:05.093Z,3.20
2019-03-11T11:27:05.052Z,3.30
2019-03-11T11:28:04.998Z,3.30
2019-03-11T11:29:04.947Z,3.30
2019-03-11T11:30:04.902Z,3.60
2019-03-11T11:31:04.852Z,3.70
2019-03-11T11:32:04.876Z,3.20
2019-03-11T11:33:04.750Z,3.30
2019-03-11T11:34:04.706Z,3.10
2019-03-11T11:35:04.654Z,3.20
2019-03-11T11:36:04.607Z,3.00
2019-03-11T11:37:04.555Z,3.00
2019-03-11T11:38:04.509Z,3.20
2019-03-11T11:39:04.462Z,2.80
2019-03-11T11:40:04.412Z,3.10
2019-03-11T11:41:04.364Z,2.80
2019-03-11T11:42:04.315Z,3.00
2019-03-11T11:43:04.264Z,2.10
2019-03-11T11:44:04.218Z,2.90
2019-03-11T11:45:04.167Z,2.40
2019-03-11T11:46:04.152Z,2.10
2019-03-11T11:47:04.073Z,2.70
2019-03-11T11:48:04.027Z,2.80
2019-03-11T11:49:03.975Z,3.00
2019-03-11T11:50:03.932Z,2.90
2019-03-11T11:51:03.877Z,2.80
2019-03-11T11:52:03.834Z,3.00
2019-03-11T11:53:03.782Z,3.20
2019-03-11T11:54:03.732Z,2.70
2019-03-11T11:55:03.688Z,3.30
2019-03-11T11:56:03.639Z,2.90
2019-03-11T11:57:03.587Z,3.40
2019-03-11T11:58:03.543Z,2.60
2019-03-11T11:59:03.495Z,2.70
2019-03-11T12:00:03.444Z,2.70
2019-03-11T12:01:03.396Z,2.40
2019-03-11T12:02:04.294Z,3.10
2019-03-11T12:03:03.303Z,2.70
2019-03-11T12:04:03.256Z,3.10
2019-03-11T12:05:03.205Z,3.40
2019-03-11T12:06:03.157Z,2.90
2019-03-11T12:07:03.108Z,2.50
2019-03-11T12:08:03.067Z,2.70
2019-03-11T12:09:03.033Z,2.50
2019-03-11T12:10:02.963Z,3.00
2019-03-11T12:11:02.919Z,2.30
2019-03-11T12:12:02.868Z,2.40
2019-03-11T12:13:02.820Z,2.20
2019-03-11T12:14:02.774Z,2.40
2019-03-11T12:15:02.725Z,2.50
2019-03-11T12:16:02.675Z,2.80
2019-03-11T12:17:02.632Z,2.50
2019-03-11T12:18:02.579Z,2.50
2019-03-11T12:19:02.533Z,2.90
2019-03-11T12:20:02.483Z,3.00
2019-03-11T12:21:02.438Z,2.40
2019-03-11T12:22:02.390Z,2.80
2019-03-11T12:23:02.339Z,3.10
2019-03-11T12:24:02.293Z,2.80
2019-03-11T12:25:02.250Z,2.70
2019-03-11T12:26:02.202Z,2.80
2019-03-11T12:27:02.155Z,2.80
2019-03-11T12:28:02.098Z,3.10
2019-03-11T12:29:02.053Z,2.90
2019-03-11T12:30:02.009Z,2.70
2019-03-11T12:31:01.958Z,4.00
2019-03-11T12:32:01.908Z,3.90
2019-03-11T12:33:01.862Z,2.80
2019-03-11T12:34:01.818Z,3.40
2019-03-11T12:35:01.765Z,3.00
2019-03-11T12:36:01.717Z,2.80
2019-03-11T12:37:01.671Z,3.20
2019-03-11T12:38:01.620Z,3.00
2019-03-11T12:39:01.576Z,3.00
2019-03-11T12:40:01.529Z,2.90
2019-03-11T12:41:01.483Z,2.80
2019-03-11T12:42:01.451Z,2.30
2019-03-11T12:43:01.391Z,2.60
2019-03-11T12:44:01.338Z,2.60
2019-03-11T12:45:01.288Z,3.20
2019-03-11T12:46:01.242Z,2.70
2019-03-11T12:47:01.191Z,2.80
2019-03-11T12:48:01.143Z,2.50
2019-03-11T12:49:01.101Z,2.60
2019-03-11T12:50:01.049Z,2.60
2019-03-11T12:51:01.003Z,2.60
2019-03-11T12:52:00.957Z,2.30
2019-03-11T12:53:00.911Z,2.90
2019-03-11T12:54:00.866Z,2.80
2019-03-11T12:55:00.812Z,2.70
2019-03-11T12:56:00.766Z,2.60
2019-03-11T12:57:00.721Z,2.40
2019-03-11T12:58:00.676Z,2.80
2019-03-11T12:59:00.623Z,2.50
2019-03-11T13:00:00.575Z,2.60
2019-03-11T13:01:00.535Z,2.50
2019-03-11T13:02:00.485Z,2.60
2019-03-11T13:03:00.436Z,2.70
2019-03-11T13:04:00.400Z,2.90
2019-03-11T13:05:00.373Z,2.60
2019-03-11T13:06:00.291Z,2.60
2019-03-11T13:07:00.246Z,2.40
2019-03-11T13:08:00.203Z,2.40
2019-03-11T13:09:00.152Z,2.30
2019-03-11T13:10:00.118Z,2.70
2019-03-11T13:11:00.066Z,2.50
2019-03-11T13:12:00.017Z,2.70
2019-03-11T13:12:59.964Z,2.60
2019-03-11T13:13:59.919Z,2.80
2019-03-11T13:14:59.876Z,2.50
2019-03-11T13:15:59.821Z,2.20
2019-03-11T13:16:59.775Z,2.20
2019-03-11T13:17:59.732Z,2.60
2019-03-11T13:18:59.687Z,2.70
2019-03-11T13:19:59.636Z,2.80